Time;durP1;ratioP1;P1;durP2;ratioP2;P2;SDS_P1;SDS_P2;PMS_P1;PMS_P2;Temp;Humidity;BMP_temperature;BMP_pressure;BME280_temperature;BME280_humidity;BME280_pressure;Samples;Min_cycle;Max_cycle;Signal;HPM_P1;HPM_P2
2021/05/30 00:02:40;;;;;;;9.68;2.80;;;;;;;11.82;67.01;101112.72;20878417;28;20487;-76
2021/05/30 00:12:42;;;;;;;7.07;2.88;;;;;;;11.75;67.54;101111.28;20837740;28;20495;-76
2021/05/30 00:22:44;;;;;;;8.57;2.65;;;;;;;11.78;66.66;101108.53;20872817;28;20049;-76
2021/05/30 00:32:47;;;;;;;5.05;2.80;;;;;;;11.66;67.83;101123.03;20938434;28;20041;-76
2021/05/30 00:42:49;;;;;;;5.55;2.70;;;;;;;11.52;68.28;101123.69;20949241;28;20087;-76
2021/05/30 00:52:50;;;;;;;8.48;2.75;;;;;;;11.45;68.80;101129.28;20917601;28;20166;-76
2021/05/30 01:02:53;;;;;;;5.30;2.80;;;;;;;11.27;69.23;101132.75;20913193;28;20052;-76
2021/05/30 01:12:56;;;;;;;5.75;2.83;;;;;;;11.22;69.58;101138.22;20925908;28;20087;-76
2021/05/30 01:23:05;;;;;;;6.43;3.08;;;;;;;10.89;71.28;101139.69;20921077;28;20135;-76
2021/05/30 01:33:07;;;;;;;7.20;3.53;;;;;;;10.83;72.11;101146.03;20908214;28;20044;-76
2021/05/30 01:43:10;;;;;;;7.60;3.35;;;;;;;10.63;73.02;101149.50;20920586;28;20052;-76
2021/05/30 01:53:12;;;;;;;8.68;4.20;;;;;;;10.63;73.04;101135.56;20918393;28;20053;-76
2021/05/30 02:03:15;;;;;;;8.40;4.10;;;;;;;10.32;75.32;101143.00;20879958;28;20048;-76
2021/05/30 02:13:20;;;;;;;8.68;4.13;;;;;;;10.14;76.56;101149.81;20829643;28;20041;-76
2021/05/30 02:23:22;;;;;;;8.83;5.10;;;;;;;10.05;77.62;101153.66;20843270;28;20208;-76
2021/05/30 02:33:25;;;;;;;9.63;4.80;;;;;;;9.96;78.27;101161.00;20876888;28;20085;-76
2021/05/30 02:43:26;;;;;;;9.40;5.00;;;;;;;9.70;80.27;101164.66;20837707;28;20053;-76
2021/05/30 02:53:31;;;;;;;10.25;5.20;;;;;;;9.61;81.65;101167.59;20895148;28;20045;-76
2021/05/30 03:03:33;;;;;;;10.00;5.57;;;;;;;9.41;83.00;101155.28;20884658;28;20045;-76
2021/05/30 03:13:35;;;;;;;10.75;5.97;;;;;;;9.51;82.86;101168.84;20826427;28;20132;-76
2021/05/30 03:23:38;;;;;;;11.02;6.50;;;;;;;9.39;84.14;101167.56;20891844;28;20056;-76
2021/05/30 03:33:40;;;;;;;13.65;7.57;;;;;;;9.32;85.53;101174.75;20869345;28;20646;-77
2021/05/30 03:43:42;;;;;;;12.70;7.22;;;;;;;9.12;87.17;101179.84;20846626;28;20041;-76
2021/05/30 03:53:44;;;;;;;11.75;7.78;;;;;;;9.11;87.67;101170.31;20902207;28;20140;-77
2021/05/30 04:03:48;;;;;;;14.95;8.25;;;;;;;9.23;87.23;101175.09;20901431;28;20049;-76
2021/05/30 04:13:56;;;;;;;15.23;9.02;;;;;;;9.20;88.01;101179.56;20845647;28;20108;-76
2021/05/30 04:23:59;;;;;;;15.68;9.40;;;;;;;9.37;87.56;101188.50;20912772;28;20053;-76
2021/05/30 04:34:01;;;;;;;15.95;9.50;;;;;;;11.05;79.07;101180.88;20895817;28;20041;-76
2021/05/30 04:44:04;;;;;;;15.93;9.23;;;;;;;11.47;75.57;101191.22;20842856;28;20411;-77
2021/05/30 04:54:07;;;;;;;15.40;8.90;;;;;;;10.46;81.23;101185.19;20900728;28;20037;-76
2021/05/30 05:04:10;;;;;;;16.23;9.77;;;;;;;10.28;83.62;101190.22;20895762;28;20048;-76
2021/05/30 05:14:12;;;;;;;17.35;10.25;;;;;;;10.56;82.41;101183.88;20857854;28;20095;-76
2021/05/30 05:24:14;;;;;;;16.60;9.80;;;;;;;10.70;81.64;101189.38;20933654;28;20056;-76
2021/05/30 05:34:16;;;;;;;19.25;10.30;;;;;;;10.84;81.47;101184.41;20886787;28;20543;-76
2021/05/30 05:44:18;;;;;;;15.98;9.35;;;;;;;11.02;80.59;101188.84;20836081;28;20458;-77
2021/05/30 05:54:20;;;;;;;16.38;9.68;;;;;;;11.34;80.11;101197.06;20854148;28;20079;-75
2021/05/30 06:04:22;;;;;;;12.18;7.47;;;;;;;11.80;77.68;101194.09;20848761;28;20048;-75
2021/05/30 06:14:24;;;;;;;9.88;5.82;;;;;;;12.29;74.29;101189.13;20837954;28;20059;-75
2021/05/30 06:24:26;;;;;;;10.30;5.72;;;;;;;12.49;72.07;101194.25;20860701;28;20077;-77
2021/05/30 06:34:29;;;;;;;8.25;5.07;;;;;;;12.82;69.70;101221.47;20851896;28;20104;-75
2021/05/30 06:44:31;;;;;;;7.75;4.63;;;;;;;12.97;67.91;101206.69;20832335;28;20057;-77
2021/05/30 06:54:33;;;;;;;8.57;4.80;;;;;;;13.39;67.11;101208.91;20855590;28;20046;-76
2021/05/30 07:04:39;;;;;;;;;;;;;;;13.62;67.51;101211.16;20885923;28;20064;-75
2021/05/30 07:14:42;;;;;;;7.82;4.47;;;;;;;14.10;65.60;101212.88;20939334;28;20144;-76
2021/05/30 07:24:44;;;;;;;6.80;4.03;;;;;;;14.29;62.90;101217.97;20920185;28;20053;-75
2021/05/30 07:34:46;;;;;;;7.47;4.38;;;;;;;14.49;61.12;101198.41;20897944;28;20047;-76
2021/05/30 07:44:49;;;;;;;9.07;3.72;;;;;;;14.87;59.03;101215.50;20909643;28;20479;-77
2021/05/30 07:54:53;;;;;;;7.00;3.92;;;;;;;15.25;57.90;101209.69;20919072;28;20064;-76
2021/05/30 08:04:56;;;;;;;7.00;3.80;;;;;;;15.46;56.52;101207.53;20887238;28;20038;-75
2021/05/30 08:14:58;;;;;;;7.63;3.70;;;;;;;16.05;54.61;101217.03;20844270;28;20053;-75
2021/05/30 08:25:00;;;;;;;7.32;3.08;;;;;;;16.23;51.04;101206.13;20846402;28;20064;-76
2021/05/30 08:35:04;;;;;;;6.35;3.33;;;;;;;16.27;50.87;101204.13;20886729;28;20056;-76
2021/05/30 08:45:07;;;;;;;6.50;3.30;;;;;;;16.66;49.29;101211.25;20913705;28;20107;-76
2021/05/30 08:55:10;;;;;;;5.38;3.05;;;;;;;17.06;49.55;101197.06;20917028;28;20053;-76
2021/05/30 09:05:13;;;;;;;6.50;3.20;;;;;;;17.42;47.86;101206.06;20915200;28;20096;-76
2021/05/30 09:15:27;;;;;;;7.60;3.45;;;;;;;18.05;47.08;101203.28;20912959;28;20045;-76
2021/05/30 09:25:29;;;;;;;5.47;2.97;;;;;;;17.92;45.52;101208.63;20922318;28;20041;-76
2021/05/30 09:35:54;;;;;;;6.85;3.30;;;;;;;18.31;46.20;101199.59;20889215;28;20045;-77
2021/05/30 09:46:00;;;;;;;5.90;2.83;;;;;;;18.71;43.75;101175.41;20863219;28;20053;-77
2021/05/30 09:56:06;;;;;;;5.70;2.63;;;;;;;19.24;40.71;101181.94;20872017;28;20304;-77
2021/05/30 10:06:08;;;;;;;6.13;2.53;;;;;;;19.09;36.03;101167.19;20842996;28;20045;-77
2021/05/30 10:16:10;;;;;;;4.45;2.47;;;;;;;19.26;35.97;101172.00;20818143;28;20475;-78
2021/05/30 10:26:20;;;;;;;4.75;2.35;;;;;;;19.68;37.35;101161.66;20826843;28;20042;-78
2021/05/30 10:36:27;;;;;;;5.30;2.35;;;;;;;20.12;36.73;101145.59;20817203;28;20404;-78
2021/05/30 10:46:50;;;;;;;4.83;2.40;;;;;;;19.80;35.65;101155.38;20812786;28;20049;-77
2021/05/30 10:56:57;;;;;;;4.30;2.20;;;;;;;19.15;35.93;101145.47;20834459;28;20050;-78
2021/05/30 11:07:20;;;;;;;5.55;1.90;;;;;;;19.39;34.79;101140.91;20819876;28;20798;-78
2021/05/30 11:17:43;;;;;;;6.20;2.10;;;;;;;19.94;34.91;101115.22;20817243;28;20045;-76
2021/05/30 11:27:55;;;;;;;3.67;2.00;;;;;;;20.13;35.05;101115.38;20829731;28;20042;-77
2021/05/30 11:37:58;;;;;;;5.57;2.33;;;;;;;20.64;36.94;101106.72;20879973;28;20037;-77
2021/05/30 11:48:15;;;;;;;4.53;2.08;;;;;;;20.49;34.96;101108.84;20899221;28;20080;-77
2021/05/30 11:58:17;;;;;;;6.25;2.30;;;;;;;20.05;33.89;101093.94;20918613;28;20072;-77
2021/05/30 12:08:19;;;;;;;3.97;1.80;;;;;;;20.61;35.17;101091.03;20911772;28;20457;-77
2021/05/30 12:18:22;;;;;;;5.90;2.10;;;;;;;20.81;32.91;101090.16;20927826;28;20049;-77
2021/05/30 12:28:28;;;;;;;5.18;1.95;;;;;;;20.98;33.28;101076.22;20911526;28;20060;-77
2021/05/30 12:38:30;;;;;;;5.05;2.33;;;;;;;21.21;32.02;101076.91;20846989;28;20095;-78
2021/05/30 12:48:43;;;;;;;3.92;1.90;;;;;;;21.20;34.06;101054.75;20851287;28;20046;-77
2021/05/30 12:59:10;;;;;;;5.50;2.22;;;;;;;21.09;32.31;101049.50;20858570;28;20057;-77
2021/05/30 13:09:12;;;;;;;6.47;2.10;;;;;;;20.88;31.68;101038.06;20846617;28;20069;-77
2021/05/30 13:19:13;;;;;;;4.40;2.20;;;;;;;20.69;31.84;101041.50;20857472;28;20057;-77
2021/05/30 13:29:20;;;;;;;4.30;2.15;;;;;;;20.59;31.22;101018.47;20864609;28;20049;-77
2021/05/30 13:39:22;;;;;;;6.18;2.60;;;;;;;21.02;33.95;101000.47;20851356;28;20041;-77
2021/05/30 13:49:24;;;;;;;6.05;2.50;;;;;;;20.98;32.35;100999.03;20849343;28;20069;-77
2021/05/30 13:59:26;;;;;;;5.18;2.22;;;;;;;20.96;32.77;100982.38;20848441;28;20050;-77
2021/05/30 14:09:28;;;;;;;4.82;2.40;;;;;;;21.34;32.21;100966.50;20935003;28;20487;-77
2021/05/30 14:19:31;;;;;;;5.38;2.53;;;;;;;21.46;32.68;100958.38;20908420;28;20132;-77
2021/05/30 14:29:32;;;;;;;3.83;2.33;;;;;;;21.22;32.65;100951.63;20911824;28;20316;-77
2021/05/30 14:39:35;;;;;;;6.15;2.50;;;;;;;21.10;31.60;100957.16;20840170;28;20104;-77
2021/05/30 14:49:37;;;;;;;5.18;2.50;;;;;;;21.68;30.84;100942.13;20848336;28;20132;-77
2021/05/30 14:59:39;;;;;;;5.43;2.38;;;;;;;21.75;31.28;100943.22;20839158;28;20072;-77
2021/05/30 15:09:41;;;;;;;3.78;2.20;;;;;;;21.50;32.15;100936.63;20831749;28;20107;-77
2021/05/30 15:19:43;;;;;;;6.47;2.58;;;;;;;21.66;30.78;100912.09;20837676;28;20049;-78
2021/05/30 15:29:45;;;;;;;3.97;2.20;;;;;;;21.71;31.15;100915.19;20857494;28;20049;-77
2021/05/30 15:39:46;;;;;;;4.55;2.35;;;;;;;21.80;32.01;100913.47;20854986;28;20041;-77
2021/05/30 15:49:48;;;;;;;5.57;2.78;;;;;;;21.50;30.38;100904.66;20836903;28;20053;-77
2021/05/30 15:59:51;;;;;;;5.85;2.40;;;;;;;21.80;31.21;100897.47;20842037;28;20553;-77
2021/05/30 16:09:53;;;;;;;5.72;3.03;;;;;;;22.09;32.83;100887.66;20842325;28;20068;-78
2021/05/30 16:19:55;;;;;;;4.45;2.53;;;;;;;21.86;31.47;100881.75;20855837;28;20098;-77
2021/05/30 16:29:56;;;;;;;4.97;2.30;;;;;;;21.77;31.13;100880.81;20852190;28;20045;-77
2021/05/30 16:39:58;;;;;;;5.55;2.08;;;;;;;21.72;31.13;100874.22;20852224;28;20132;-77
2021/05/30 16:50:00;;;;;;;5.82;3.58;;;;;;;21.85;29.99;100863.25;20857184;28;20041;-78
2021/05/30 17:00:06;;;;;;;5.90;2.40;;;;;;;21.58;30.49;100853.38;20850083;28;20088;-77
2021/05/30 17:10:09;;;;;;;4.68;2.40;;;;;;;21.40;32.06;100863.03;20844326;28;20046;-77
2021/05/30 17:20:12;;;;;;;5.93;2.67;;;;;;;21.25;31.51;100860.81;20854032;28;20053;-76
2021/05/30 17:30:14;;;;;;;4.07;2.15;;;;;;;21.02;30.75;100862.03;20851881;28;20052;-77
2021/05/30 17:40:16;;;;;;;4.93;2.20;;;;;;;20.91;33.04;100868.34;20933123;28;20042;-76
2021/05/30 17:50:17;;;;;;;5.72;2.17;;;;;;;20.89;32.97;100864.09;20903660;28;20049;-76
2021/05/30 18:00:20;;;;;;;5.38;2.20;;;;;;;20.70;32.02;100864.94;20915844;28;20548;-78
2021/05/30 18:10:21;;;;;;;7.32;2.40;;;;;;;20.41;32.95;100853.38;20904925;28;20067;-78
2021/05/30 18:20:24;;;;;;;4.88;2.50;;;;;;;20.08;34.83;100859.78;20913200;28;20071;-77
2021/05/30 18:30:31;;;;;;;6.95;3.00;;;;;;;19.94;34.60;100862.78;20946015;28;20114;-75
2021/05/30 18:40:36;;;;;;;5.45;2.95;;;;;;;19.48;34.83;100856.06;20913652;28;20114;-77
2021/05/30 18:50:41;;;;;;;5.32;2.33;;;;;;;18.82;36.75;100856.28;20894697;28;20530;-77
2021/05/30 19:00:45;;;;;;;7.53;3.13;;;;;;;18.35;38.51;100843.22;20877505;28;20471;-78
2021/05/30 19:10:51;;;;;;;;;;;;;;;18.08;38.48;100852.50;20845800;28;20484;-76
2021/05/30 19:20:56;;;;;;;4.82;2.38;;;;;;;17.78;39.38;100861.84;20840548;28;19921;-77
2021/05/30 19:31:01;;;;;;;5.90;2.40;;;;;;;17.43;39.21;100861.00;20843085;28;20051;-76
2021/05/30 19:41:03;;;;;;;;;;;;;;;17.20;40.50;100868.03;20845203;28;20053;-76
2021/05/30 19:51:05;;;;;;;7.72;2.78;;;;;;;17.04;40.09;100878.06;20842407;28;19921;-77
2021/05/30 20:01:07;;;;;;;6.13;3.22;;;;;;;16.85;40.79;100885.66;20836008;28;20049;-77
2021/05/30 20:11:09;;;;;;;5.47;2.40;;;;;;;16.45;42.50;100883.19;20850433;28;20041;-77
2021/05/30 20:21:11;;;;;;;5.40;2.70;;;;;;;16.21;43.67;100887.53;20834467;28;20715;-77
2021/05/30 20:31:14;;;;;;;4.68;2.30;;;;;;;16.09;42.56;100893.69;20825367;28;20080;-77
2021/05/30 20:41:16;;;;;;;7.20;2.90;;;;;;;15.95;43.60;100894.63;20819593;28;20065;-77
2021/05/30 20:51:18;;;;;;;5.95;2.90;;;;;;;15.82;43.98;100896.41;20810643;28;20549;-77
2021/05/30 21:01:20;;;;;;;7.20;2.75;;;;;;;15.54;44.27;100886.03;20808140;28;20411;-76
2021/05/30 21:11:22;;;;;;;6.03;2.65;;;;;;;15.36;45.40;100878.38;20811937;28;20052;-77
2021/05/30 21:21:25;;;;;;;7.53;3.10;;;;;;;15.14;46.16;100880.72;20812681;28;20046;-77
2021/05/30 21:31:27;;;;;;;6.55;2.75;;;;;;;14.93;46.64;100871.59;20809215;28;20395;-76
2021/05/30 21:41:29;;;;;;;6.20;3.10;;;;;;;14.80;47.06;100878.56;20842942;28;20073;-76
2021/05/30 21:51:31;;;;;;;8.93;2.80;;;;;;;14.64;47.66;100878.69;20847688;28;20045;-76
2021/05/30 22:01:32;;;;;;;5.95;2.80;;;;;;;14.49;48.37;100882.31;20848352;28;20103;-76
2021/05/30 22:11:34;;;;;;;4.85;2.65;;;;;;;14.38;48.69;100885.59;20881976;28;20057;-76
2021/05/30 22:21:37;;;;;;;5.90;2.60;;;;;;;14.23;49.42;100894.41;20843086;28;20049;-76
2021/05/30 22:31:39;;;;;;;7.60;2.97;;;;;;;13.96;50.59;100885.59;20833215;28;20058;-76
2021/05/30 22:41:42;;;;;;;6.43;3.63;;;;;;;13.77;51.61;100892.88;20818827;28;20068;-76
2021/05/30 22:51:44;;;;;;;8.00;3.50;;;;;;;13.59;52.31;100890.41;20842120;28;20132;-76
2021/05/30 23:01:45;;;;;;;7.03;3.50;;;;;;;13.38;53.48;100885.53;20833036;28;20046;-76
2021/05/30 23:11:47;;;;;;;7.25;3.22;;;;;;;13.22;53.93;100885.59;20829095;28;20071;-76
2021/05/30 23:21:49;;;;;;;5.93;3.00;;;;;;;13.05;54.84;100893.56;20892025;28;20136;-77
2021/05/30 23:31:53;;;;;;;7.15;2.97;;;;;;;12.80;56.97;100884.41;20884140;28;20045;-77
2021/05/30 23:41:54;;;;;;;6.95;2.88;;;;;;;12.56;57.91;100875.25;20820263;28;20123;-76
2021/05/30 23:51:56;;;;;;;4.97;2.90;;;;;;;12.38;58.11;100879.75;20883442;28;20519;-77
